sensor_id;sensor_type;location;lat;lon;timestamp;temperature;humidity
9881;DHT22;4979;51.014;6.678;2023-12-28T00:01:28;10.20;99.90
9881;DHT22;4979;51.014;6.678;2023-12-28T00:03:53;10.20;99.90
9881;DHT22;4979;51.014;6.678;2023-12-28T00:06:19;10.20;99.90
9881;DHT22;4979;51.014;6.678;2023-12-28T00:08:47;10.20;99.90
9881;DHT22;4979;51.014;6.678;2023-12-28T00:11:13;10.20;99.90
9881;DHT22;4979;51.014;6.678;2023-12-28T00:13:39;10.10;99.90
9881;DHT22;4979;51.014;6.678;2023-12-28T00:16:05;10.10;99.90
9881;DHT22;4979;51.014;6.678;2023-12-28T00:18:31;10.10;99.90
9881;DHT22;4979;51.014;6.678;2023-12-28T00:20:56;10.10;99.90
9881;DHT22;4979;51.014;6.678;2023-12-28T00:23:22;10.00;99.90
9881;DHT22;4979;51.014;6.678;2023-12-28T00:25:48;10.00;99.90
9881;DHT22;4979;51.014;6.678;2023-12-28T00:28:13;10.00;99.90
9881;DHT22;4979;51.014;6.678;2023-12-28T00:30:39;9.90;99.90
9881;DHT22;4979;51.014;6.678;2023-12-28T00:33:04;9.90;99.90
9881;DHT22;4979;51.014;6.678;2023-12-28T00:35:30;9.80;99.90
9881;DHT22;4979;51.014;6.678;2023-12-28T00:37:55;9.80;99.90
9881;DHT22;4979;51.014;6.678;2023-12-28T00:40:21;9.80;99.90
9881;DHT22;4979;51.014;6.678;2023-12-28T00:42:47;9.70;99.90
9881;DHT22;4979;51.014;6.678;2023-12-28T00:45:13;9.70;99.90
9881;DHT22;4979;51.014;6.678;2023-12-28T00:47:39;9.70;99.90
9881;DHT22;4979;51.014;6.678;2023-12-28T00:50:05;9.70;99.90
9881;DHT22;4979;51.014;6.678;2023-12-28T00:52:30;10.30;99.90
9881;DHT22;4979;51.014;6.678;2023-12-28T00:54:56;9.70;99.90
9881;DHT22;4979;51.014;6.678;2023-12-28T00:57:22;9.70;99.90
9881;DHT22;4979;51.014;6.678;2023-12-28T00:59:47;9.70;99.90
9881;DHT22;4979;51.014;6.678;2023-12-28T01:02:13;9.70;99.90
9881;DHT22;4979;51.014;6.678;2023-12-28T01:04:38;9.70;99.90
9881;DHT22;4979;51.014;6.678;2023-12-28T01:07:04;9.70;99.90
9881;DHT22;4979;51.014;6.678;2023-12-28T01:09:31;9.70;99.90
9881;DHT22;4979;51.014;6.678;2023-12-28T01:11:58;9.70;99.90
9881;DHT22;4979;51.014;6.678;2023-12-28T01:14:24;9.70;99.90
9881;DHT22;4979;51.014;6.678;2023-12-28T01:16:49;9.80;99.90
9881;DHT22;4979;51.014;6.678;2023-12-28T01:19:15;9.80;99.90
9881;DHT22;4979;51.014;6.678;2023-12-28T01:21:40;9.80;99.90
9881;DHT22;4979;51.014;6.678;2023-12-28T01:24:06;9.80;99.90
9881;DHT22;4979;51.014;6.678;2023-12-28T01:26:32;9.80;99.90
9881;DHT22;4979;51.014;6.678;2023-12-28T01:28:57;9.80;99.90
9881;DHT22;4979;51.014;6.678;2023-12-28T01:31:23;9.80;99.90
9881;DHT22;4979;51.014;6.678;2023-12-28T01:33:48;9.80;99.90
9881;DHT22;4979;51.014;6.678;2023-12-28T01:36:18;9.80;99.90
9881;DHT22;4979;51.014;6.678;2023-12-28T01:38:44;9.90;99.90
9881;DHT22;4979;51.014;6.678;2023-12-28T01:41:10;9.90;99.90
9881;DHT22;4979;51.014;6.678;2023-12-28T01:43:35;9.90;99.90
9881;DHT22;4979;51.014;6.678;2023-12-28T01:46:02;9.90;99.90
9881;DHT22;4979;51.014;6.678;2023-12-28T01:48:28;9.80;99.90
9881;DHT22;4979;51.014;6.678;2023-12-28T01:50:56;9.90;99.90
9881;DHT22;4979;51.014;6.678;2023-12-28T01:53:22;9.80;99.90
9881;DHT22;4979;51.014;6.678;2023-12-28T01:55:48;9.80;99.90
9881;DHT22;4979;51.014;6.678;2023-12-28T01:58:14;9.80;99.90
9881;DHT22;4979;51.014;6.678;2023-12-28T02:00:40;9.80;99.90
9881;DHT22;4979;51.014;6.678;2023-12-28T02:03:06;9.80;99.90
9881;DHT22;4979;51.014;6.678;2023-12-28T02:05:33;9.80;99.90
9881;DHT22;4979;51.014;6.678;2023-12-28T02:07:59;9.70;99.90
9881;DHT22;4979;51.014;6.678;2023-12-28T02:10:24;9.70;99.90
9881;DHT22;4979;51.014;6.678;2023-12-28T02:12:50;9.80;99.90
9881;DHT22;4979;51.014;6.678;2023-12-28T02:15:19;9.70;99.90
9881;DHT22;4979;51.014;6.678;2023-12-28T02:17:49;9.80;99.90
9881;DHT22;4979;51.014;6.678;2023-12-28T02:20:16;9.80;99.90
9881;DHT22;4979;51.014;6.678;2023-12-28T02:22:45;9.80;99.90
9881;DHT22;4979;51.014;6.678;2023-12-28T02:25:11;9.80;99.90
9881;DHT22;4979;51.014;6.678;2023-12-28T02:27:44;9.80;99.90
9881;DHT22;4979;51.014;6.678;2023-12-28T02:30:15;9.80;99.90
9881;DHT22;4979;51.014;6.678;2023-12-28T02:33:15;9.80;99.90
9881;DHT22;4979;51.014;6.678;2023-12-28T02:35:52;9.80;99.90
9881;DHT22;4979;51.014;6.678;2023-12-28T02:38:19;9.80;99.90
9881;DHT22;4979;51.014;6.678;2023-12-28T02:40:45;9.80;99.90
9881;DHT22;4979;51.014;6.678;2023-12-28T02:43:12;9.80;99.90
9881;DHT22;4979;51.014;6.678;2023-12-28T02:45:38;9.80;99.90
9881;DHT22;4979;51.014;6.678;2023-12-28T02:48:05;9.80;99.90
9881;DHT22;4979;51.014;6.678;2023-12-28T02:50:31;9.80;99.90
9881;DHT22;4979;51.014;6.678;2023-12-28T02:52:57;9.80;99.90
9881;DHT22;4979;51.014;6.678;2023-12-28T02:55:23;9.80;99.90
9881;DHT22;4979;51.014;6.678;2023-12-28T02:57:54;9.80;99.90
9881;DHT22;4979;51.014;6.678;2023-12-28T03:00:26;9.80;99.90
9881;DHT22;4979;51.014;6.678;2023-12-28T03:02:52;9.80;99.90
9881;DHT22;4979;51.014;6.678;2023-12-28T03:05:17;9.80;99.90
9881;DHT22;4979;51.014;6.678;2023-12-28T03:07:43;9.90;99.90
9881;DHT22;4979;51.014;6.678;2023-12-28T03:10:09;9.90;99.90
9881;DHT22;4979;51.014;6.678;2023-12-28T03:12:36;9.90;99.90
9881;DHT22;4979;51.014;6.678;2023-12-28T03:15:03;9.90;99.90
9881;DHT22;4979;51.014;6.678;2023-12-28T03:17:29;9.90;99.90
9881;DHT22;4979;51.014;6.678;2023-12-28T03:19:56;9.90;99.90
9881;DHT22;4979;51.014;6.678;2023-12-28T03:22:22;9.90;99.90
9881;DHT22;4979;51.014;6.678;2023-12-28T03:24:48;9.90;99.90
9881;DHT22;4979;51.014;6.678;2023-12-28T03:27:14;9.90;99.90
9881;DHT22;4979;51.014;6.678;2023-12-28T03:29:41;9.90;99.90
9881;DHT22;4979;51.014;6.678;2023-12-28T03:32:07;9.90;99.90
9881;DHT22;4979;51.014;6.678;2023-12-28T03:34:33;9.90;99.90
9881;DHT22;4979;51.014;6.678;2023-12-28T03:36:59;9.90;99.90
9881;DHT22;4979;51.014;6.678;2023-12-28T03:39:25;9.90;99.90
9881;DHT22;4979;51.014;6.678;2023-12-28T03:41:51;9.90;99.90
9881;DHT22;4979;51.014;6.678;2023-12-28T03:44:19;9.90;99.90
9881;DHT22;4979;51.014;6.678;2023-12-28T03:46:46;10.00;99.90
9881;DHT22;4979;51.014;6.678;2023-12-28T03:49:14;10.00;99.90
9881;DHT22;4979;51.014;6.678;2023-12-28T03:51:40;10.00;99.90
9881;DHT22;4979;51.014;6.678;2023-12-28T03:54:05;10.00;99.90
9881;DHT22;4979;51.014;6.678;2023-12-28T03:56:31;10.00;99.90
9881;DHT22;4979;51.014;6.678;2023-12-28T03:58:58;10.00;99.90
9881;DHT22;4979;51.014;6.678;2023-12-28T04:01:23;10.00;99.90
9881;DHT22;4979;51.014;6.678;2023-12-28T04:03:49;10.00;99.90
9881;DHT22;4979;51.014;6.678;2023-12-28T04:06:15;10.00;99.90
9881;DHT22;4979;51.014;6.678;2023-12-28T04:08:41;10.00;99.90
9881;DHT22;4979;51.014;6.678;2023-12-28T04:11:07;10.00;99.90
9881;DHT22;4979;51.014;6.678;2023-12-28T04:13:33;10.00;99.90
9881;DHT22;4979;51.014;6.678;2023-12-28T04:15:59;10.00;99.90
9881;DHT22;4979;51.014;6.678;2023-12-28T04:18:24;10.00;99.90
9881;DHT22;4979;51.014;6.678;2023-12-28T04:20:50;10.00;99.90
9881;DHT22;4979;51.014;6.678;2023-12-28T04:23:16;10.00;99.90
9881;DHT22;4979;51.014;6.678;2023-12-28T04:25:41;10.00;99.90
9881;DHT22;4979;51.014;6.678;2023-12-28T04:28:07;9.90;99.90
9881;DHT22;4979;51.014;6.678;2023-12-28T04:30:33;9.90;99.90
9881;DHT22;4979;51.014;6.678;2023-12-28T04:32:58;10.00;99.90
9881;DHT22;4979;51.014;6.678;2023-12-28T04:35:24;10.00;99.90
9881;DHT22;4979;51.014;6.678;2023-12-28T04:37:49;10.00;99.90
9881;DHT22;4979;51.014;6.678;2023-12-28T04:40:15;9.90;99.90
9881;DHT22;4979;51.014;6.678;2023-12-28T04:42:42;10.00;99.90
9881;DHT22;4979;51.014;6.678;2023-12-28T04:45:08;10.00;99.90
9881;DHT22;4979;51.014;6.678;2023-12-28T04:47:34;9.90;99.90
9881;DHT22;4979;51.014;6.678;2023-12-28T04:50:00;10.00;99.90
9881;DHT22;4979;51.014;6.678;2023-12-28T04:52:26;10.00;99.90
9881;DHT22;4979;51.014;6.678;2023-12-28T04:54:51;10.00;99.90
9881;DHT22;4979;51.014;6.678;2023-12-28T04:57:17;10.00;99.90
9881;DHT22;4979;51.014;6.678;2023-12-28T04:59:42;10.00;99.90
9881;DHT22;4979;51.014;6.678;2023-12-28T05:02:08;9.90;99.90
9881;DHT22;4979;51.014;6.678;2023-12-28T05:04:36;10.00;99.90
9881;DHT22;4979;51.014;6.678;2023-12-28T05:07:03;10.00;99.90
9881;DHT22;4979;51.014;6.678;2023-12-28T05:09:29;10.00;99.90
9881;DHT22;4979;51.014;6.678;2023-12-28T05:11:54;10.00;99.90
9881;DHT22;4979;51.014;6.678;2023-12-28T05:14:20;9.90;99.90
9881;DHT22;4979;51.014;6.678;2023-12-28T05:16:45;9.90;99.90
9881;DHT22;4979;51.014;6.678;2023-12-28T05:19:11;9.90;99.90
9881;DHT22;4979;51.014;6.678;2023-12-28T05:21:37;10.00;99.90
9881;DHT22;4979;51.014;6.678;2023-12-28T05:24:03;10.00;99.90
9881;DHT22;4979;51.014;6.678;2023-12-28T05:26:28;10.00;99.90
9881;DHT22;4979;51.014;6.678;2023-12-28T05:28:54;10.00;99.90
9881;DHT22;4979;51.014;6.678;2023-12-28T05:31:19;10.00;99.90
9881;DHT22;4979;51.014;6.678;2023-12-28T05:33:45;10.00;99.90
9881;DHT22;4979;51.014;6.678;2023-12-28T05:36:10;10.10;99.90
9881;DHT22;4979;51.014;6.678;2023-12-28T05:38:36;10.10;99.90
9881;DHT22;4979;51.014;6.678;2023-12-28T05:41:01;10.10;99.90
9881;DHT22;4979;51.014;6.678;2023-12-28T05:43:27;10.10;99.90
9881;DHT22;4979;51.014;6.678;2023-12-28T05:45:53;10.10;99.90
9881;DHT22;4979;51.014;6.678;2023-12-28T05:48:18;10.00;99.90
9881;DHT22;4979;51.014;6.678;2023-12-28T05:50:44;8.30;99.90
9881;DHT22;4979;51.014;6.678;2023-12-28T05:53:09;10.10;99.90
9881;DHT22;4979;51.014;6.678;2023-12-28T05:55:42;10.10;99.90
9881;DHT22;4979;51.014;6.678;2023-12-28T05:58:09;10.10;99.90
9881;DHT22;4979;51.014;6.678;2023-12-28T06:00:35;10.10;99.90
9881;DHT22;4979;51.014;6.678;2023-12-28T06:03:02;10.20;99.90
9881;DHT22;4979;51.014;6.678;2023-12-28T06:05:28;10.10;99.90
9881;DHT22;4979;51.014;6.678;2023-12-28T06:07:54;10.10;99.90
9881;DHT22;4979;51.014;6.678;2023-12-28T06:10:19;10.10;99.90
9881;DHT22;4979;51.014;6.678;2023-12-28T06:12:45;10.10;99.90
9881;DHT22;4979;51.014;6.678;2023-12-28T06:15:11;10.10;99.90
9881;DHT22;4979;51.014;6.678;2023-12-28T06:17:36;10.10;99.90
9881;DHT22;4979;51.014;6.678;2023-12-28T06:20:02;10.10;99.90
9881;DHT22;4979;51.014;6.678;2023-12-28T06:22:28;10.10;99.90
9881;DHT22;4979;51.014;6.678;2023-12-28T06:24:54;10.10;99.90
9881;DHT22;4979;51.014;6.678;2023-12-28T06:27:20;10.10;99.90
9881;DHT22;4979;51.014;6.678;2023-12-28T06:29:46;10.10;99.90
9881;DHT22;4979;51.014;6.678;2023-12-28T06:32:12;10.10;99.90
9881;DHT22;4979;51.014;6.678;2023-12-28T06:34:37;10.10;99.90
9881;DHT22;4979;51.014;6.678;2023-12-28T06:37:03;10.10;99.90
9881;DHT22;4979;51.014;6.678;2023-12-28T06:39:29;10.20;99.90
9881;DHT22;4979;51.014;6.678;2023-12-28T06:41:54;10.20;99.90
9881;DHT22;4979;51.014;6.678;2023-12-28T06:44:20;10.20;99.90
9881;DHT22;4979;51.014;6.678;2023-12-28T06:46:45;10.20;99.90
9881;DHT22;4979;51.014;6.678;2023-12-28T06:49:11;10.20;99.90
9881;DHT22;4979;51.014;6.678;2023-12-28T06:51:36;10.20;99.90
9881;DHT22;4979;51.014;6.678;2023-12-28T06:54:02;10.10;99.90
9881;DHT22;4979;51.014;6.678;2023-12-28T06:56:28;10.10;99.90
9881;DHT22;4979;51.014;6.678;2023-12-28T06:58:53;10.10;99.90
9881;DHT22;4979;51.014;6.678;2023-12-28T07:01:19;10.20;99.90
9881;DHT22;4979;51.014;6.678;2023-12-28T07:03:45;10.10;99.90
9881;DHT22;4979;51.014;6.678;2023-12-28T07:06:10;10.10;99.90
9881;DHT22;4979;51.014;6.678;2023-12-28T07:08:36;10.10;99.90
9881;DHT22;4979;51.014;6.678;2023-12-28T07:11:02;10.10;99.90
9881;DHT22;4979;51.014;6.678;2023-12-28T07:13:27;10.10;99.90
9881;DHT22;4979;51.014;6.678;2023-12-28T07:15:53;10.20;99.90
9881;DHT22;4979;51.014;6.678;2023-12-28T07:18:19;10.20;99.90
9881;DHT22;4979;51.014;6.678;2023-12-28T07:20:44;10.20;99.90
9881;DHT22;4979;51.014;6.678;2023-12-28T07:23:10;10.20;99.90
9881;DHT22;4979;51.014;6.678;2023-12-28T07:25:35;10.30;99.90
9881;DHT22;4979;51.014;6.678;2023-12-28T07:28:01;10.30;99.90
9881;DHT22;4979;51.014;6.678;2023-12-28T07:30:27;10.20;99.90
9881;DHT22;4979;51.014;6.678;2023-12-28T07:32:52;10.20;99.90
9881;DHT22;4979;51.014;6.678;2023-12-28T07:35:18;10.20;99.90
9881;DHT22;4979;51.014;6.678;2023-12-28T07:37:44;10.20;99.90
9881;DHT22;4979;51.014;6.678;2023-12-28T07:40:11;10.20;99.90
9881;DHT22;4979;51.014;6.678;2023-12-28T07:42:37;10.20;99.90
9881;DHT22;4979;51.014;6.678;2023-12-28T07:45:03;10.20;99.90
9881;DHT22;4979;51.014;6.678;2023-12-28T07:47:29;10.20;99.90
9881;DHT22;4979;51.014;6.678;2023-12-28T07:49:55;10.20;99.90
9881;DHT22;4979;51.014;6.678;2023-12-28T07:52:20;10.20;99.90
9881;DHT22;4979;51.014;6.678;2023-12-28T07:54:46;10.20;99.90
9881;DHT22;4979;51.014;6.678;2023-12-28T07:57:11;10.20;99.90
9881;DHT22;4979;51.014;6.678;2023-12-28T07:59:37;10.20;99.90
9881;DHT22;4979;51.014;6.678;2023-12-28T08:02:03;10.20;99.90
9881;DHT22;4979;51.014;6.678;2023-12-28T08:04:28;10.20;99.90
9881;DHT22;4979;51.014;6.678;2023-12-28T08:06:54;10.20;99.90
9881;DHT22;4979;51.014;6.678;2023-12-28T08:09:19;10.20;99.90
9881;DHT22;4979;51.014;6.678;2023-12-28T08:11:45;10.20;99.90
9881;DHT22;4979;51.014;6.678;2023-12-28T08:14:11;10.20;99.90
9881;DHT22;4979;51.014;6.678;2023-12-28T08:16:36;10.30;99.90
9881;DHT22;4979;51.014;6.678;2023-12-28T08:19:02;10.20;99.90
9881;DHT22;4979;51.014;6.678;2023-12-28T08:21:27;10.20;99.90
9881;DHT22;4979;51.014;6.678;2023-12-28T08:23:53;10.30;99.90
9881;DHT22;4979;51.014;6.678;2023-12-28T08:26:18;10.30;99.90
9881;DHT22;4979;51.014;6.678;2023-12-28T08:28:44;10.30;99.90
9881;DHT22;4979;51.014;6.678;2023-12-28T08:31:10;10.20;99.90
9881;DHT22;4979;51.014;6.678;2023-12-28T08:33:36;10.30;99.90
9881;DHT22;4979;51.014;6.678;2023-12-28T08:36:09;10.30;99.90
9881;DHT22;4979;51.014;6.678;2023-12-28T08:38:35;10.30;99.90
9881;DHT22;4979;51.014;6.678;2023-12-28T08:41:00;10.40;99.90
9881;DHT22;4979;51.014;6.678;2023-12-28T08:43:28;10.40;99.90
9881;DHT22;4979;51.014;6.678;2023-12-28T08:45:54;10.40;99.90
9881;DHT22;4979;51.014;6.678;2023-12-28T08:48:20;10.40;99.90
9881;DHT22;4979;51.014;6.678;2023-12-28T08:50:46;10.50;99.90
9881;DHT22;4979;51.014;6.678;2023-12-28T08:53:11;10.50;99.90
9881;DHT22;4979;51.014;6.678;2023-12-28T08:55:37;10.50;99.90
9881;DHT22;4979;51.014;6.678;2023-12-28T08:58:03;10.50;99.90
9881;DHT22;4979;51.014;6.678;2023-12-28T09:00:28;10.50;99.90
9881;DHT22;4979;51.014;6.678;2023-12-28T09:02:54;10.50;99.90
9881;DHT22;4979;51.014;6.678;2023-12-28T09:05:19;10.50;99.90
9881;DHT22;4979;51.014;6.678;2023-12-28T09:07:45;10.60;99.90
9881;DHT22;4979;51.014;6.678;2023-12-28T09:10:11;10.50;99.90
9881;DHT22;4979;51.014;6.678;2023-12-28T09:12:37;10.60;99.90
9881;DHT22;4979;51.014;6.678;2023-12-28T09:15:04;10.60;99.90
9881;DHT22;4979;51.014;6.678;2023-12-28T09:17:30;10.60;99.90
9881;DHT22;4979;51.014;6.678;2023-12-28T09:19:56;10.60;99.90
9881;DHT22;4979;51.014;6.678;2023-12-28T09:22:23;10.60;99.90
9881;DHT22;4979;51.014;6.678;2023-12-28T09:24:49;10.60;99.90
9881;DHT22;4979;51.014;6.678;2023-12-28T09:27:14;10.60;99.90
9881;DHT22;4979;51.014;6.678;2023-12-28T09:29:40;10.60;99.90
9881;DHT22;4979;51.014;6.678;2023-12-28T09:32:06;10.50;99.90
9881;DHT22;4979;51.014;6.678;2023-12-28T09:34:31;10.60;99.90
9881;DHT22;4979;51.014;6.678;2023-12-28T09:36:57;10.60;99.90
9881;DHT22;4979;51.014;6.678;2023-12-28T09:39:22;10.70;99.90
9881;DHT22;4979;51.014;6.678;2023-12-28T09:42:16;10.70;99.90
9881;DHT22;4979;51.014;6.678;2023-12-28T09:44:40;10.80;99.90
9881;DHT22;4979;51.014;6.678;2023-12-28T09:47:09;10.90;99.90
9881;DHT22;4979;51.014;6.678;2023-12-28T09:49:38;10.90;99.90
9881;DHT22;4979;51.014;6.678;2023-12-28T09:52:05;11.00;99.90
9881;DHT22;4979;51.014;6.678;2023-12-28T09:54:31;11.10;99.90
9881;DHT22;4979;51.014;6.678;2023-12-28T09:56:57;11.10;99.90
9881;DHT22;4979;51.014;6.678;2023-12-28T09:59:23;11.10;99.90
9881;DHT22;4979;51.014;6.678;2023-12-28T10:01:49;11.20;99.90
9881;DHT22;4979;51.014;6.678;2023-12-28T10:04:16;11.20;99.90
9881;DHT22;4979;51.014;6.678;2023-12-28T10:06:41;11.20;99.90
9881;DHT22;4979;51.014;6.678;2023-12-28T10:09:07;11.10;99.90
9881;DHT22;4979;51.014;6.678;2023-12-28T10:11:33;11.20;99.90
9881;DHT22;4979;51.014;6.678;2023-12-28T10:13:59;11.20;99.90
9881;DHT22;4979;51.014;6.678;2023-12-28T10:16:26;11.30;99.90
9881;DHT22;4979;51.014;6.678;2023-12-28T10:18:52;11.30;99.90
9881;DHT22;4979;51.014;6.678;2023-12-28T10:21:17;11.30;99.90
9881;DHT22;4979;51.014;6.678;2023-12-28T10:23:43;11.30;99.90
9881;DHT22;4979;51.014;6.678;2023-12-28T10:26:08;11.40;99.90
9881;DHT22;4979;51.014;6.678;2023-12-28T10:28:34;11.30;99.90
9881;DHT22;4979;51.014;6.678;2023-12-28T10:31:00;11.40;99.90
9881;DHT22;4979;51.014;6.678;2023-12-28T10:33:26;11.50;99.90
9881;DHT22;4979;51.014;6.678;2023-12-28T10:35:52;11.50;99.90
9881;DHT22;4979;51.014;6.678;2023-12-28T10:38:20;11.50;99.90
9881;DHT22;4979;51.014;6.678;2023-12-28T10:40:46;11.60;99.90
9881;DHT22;4979;51.014;6.678;2023-12-28T10:43:17;11.60;99.90
9881;DHT22;4979;51.014;6.678;2023-12-28T10:45:46;11.70;99.90
9881;DHT22;4979;51.014;6.678;2023-12-28T10:48:13;11.80;99.90
9881;DHT22;4979;51.014;6.678;2023-12-28T10:50:40;11.80;99.90
9881;DHT22;4979;51.014;6.678;2023-12-28T10:58:49;11.90;99.90
9881;DHT22;4979;51.014;6.678;2023-12-28T11:01:24;11.90;99.90
9881;DHT22;4979;51.014;6.678;2023-12-28T11:04:07;11.80;99.90
9881;DHT22;4979;51.014;6.678;2023-12-28T11:06:35;11.90;99.90
9881;DHT22;4979;51.014;6.678;2023-12-28T11:09:02;12.00;99.90
9881;DHT22;4979;51.014;6.678;2023-12-28T11:11:29;11.90;99.90
9881;DHT22;4979;51.014;6.678;2023-12-28T11:13:55;12.00;99.90
9881;DHT22;4979;51.014;6.678;2023-12-28T11:16:22;12.00;99.90
9881;DHT22;4979;51.014;6.678;2023-12-28T11:18:48;11.90;99.90
9881;DHT22;4979;51.014;6.678;2023-12-28T11:21:15;11.90;99.90
9881;DHT22;4979;51.014;6.678;2023-12-28T11:23:41;11.90;99.90
9881;DHT22;4979;51.014;6.678;2023-12-28T11:26:21;12.00;99.90
9881;DHT22;4979;51.014;6.678;2023-12-28T11:28:47;12.00;99.90
9881;DHT22;4979;51.014;6.678;2023-12-28T11:31:16;12.20;99.90
9881;DHT22;4979;51.014;6.678;2023-12-28T11:33:47;12.20;99.90
9881;DHT22;4979;51.014;6.678;2023-12-28T11:36:34;12.20;99.90
9881;DHT22;4979;51.014;6.678;2023-12-28T11:39:06;12.20;99.90
9881;DHT22;4979;51.014;6.678;2023-12-28T11:41:32;12.30;99.90
9881;DHT22;4979;51.014;6.678;2023-12-28T11:44:02;12.30;99.90
9881;DHT22;4979;51.014;6.678;2023-12-28T11:46:29;12.40;99.90
9881;DHT22;4979;51.014;6.678;2023-12-28T11:49:03;12.40;99.90
9881;DHT22;4979;51.014;6.678;2023-12-28T11:51:29;12.40;99.90
9881;DHT22;4979;51.014;6.678;2023-12-28T11:53:55;12.40;99.90
9881;DHT22;4979;51.014;6.678;2023-12-28T11:56:25;12.40;99.90
9881;DHT22;4979;51.014;6.678;2023-12-28T11:58:51;12.30;99.90
9881;DHT22;4979;51.014;6.678;2023-12-28T12:01:17;12.30;99.90
9881;DHT22;4979;51.014;6.678;2023-12-28T12:03:43;12.20;99.90
9881;DHT22;4979;51.014;6.678;2023-12-28T12:06:14;12.20;99.90
9881;DHT22;4979;51.014;6.678;2023-12-28T12:08:40;12.20;99.90
9881;DHT22;4979;51.014;6.678;2023-12-28T12:11:17;12.20;99.90
9881;DHT22;4979;51.014;6.678;2023-12-28T12:13:44;12.20;99.90
9881;DHT22;4979;51.014;6.678;2023-12-28T12:16:10;12.20;99.90
9881;DHT22;4979;51.014;6.678;2023-12-28T12:18:36;12.30;99.90
9881;DHT22;4979;51.014;6.678;2023-12-28T12:21:02;12.20;99.90
9881;DHT22;4979;51.014;6.678;2023-12-28T12:23:28;12.20;99.90
9881;DHT22;4979;51.014;6.678;2023-12-28T12:25:54;12.20;99.90
9881;DHT22;4979;51.014;6.678;2023-12-28T12:28:20;12.20;99.90
9881;DHT22;4979;51.014;6.678;2023-12-28T12:30:54;12.10;99.90
9881;DHT22;4979;51.014;6.678;2023-12-28T12:33:22;12.10;99.90
9881;DHT22;4979;51.014;6.678;2023-12-28T12:35:49;12.10;99.90
9881;DHT22;4979;51.014;6.678;2023-12-28T12:38:16;12.10;99.90
9881;DHT22;4979;51.014;6.678;2023-12-28T12:40:42;12.10;99.90
9881;DHT22;4979;51.014;6.678;2023-12-28T12:43:07;12.10;99.90
9881;DHT22;4979;51.014;6.678;2023-12-28T12:45:34;12.10;99.90
9881;DHT22;4979;51.014;6.678;2023-12-28T12:48:01;12.10;99.90
9881;DHT22;4979;51.014;6.678;2023-12-28T12:50:27;12.10;99.90
9881;DHT22;4979;51.014;6.678;2023-12-28T12:52:52;12.10;99.90
9881;DHT22;4979;51.014;6.678;2023-12-28T12:55:18;12.10;99.90
9881;DHT22;4979;51.014;6.678;2023-12-28T12:57:43;12.00;99.90
9881;DHT22;4979;51.014;6.678;2023-12-28T13:00:11;12.10;99.90
9881;DHT22;4979;51.014;6.678;2023-12-28T13:02:37;12.00;99.90
9881;DHT22;4979;51.014;6.678;2023-12-28T13:05:03;12.00;99.90
9881;DHT22;4979;51.014;6.678;2023-12-28T13:07:33;12.00;99.90
9881;DHT22;4979;51.014;6.678;2023-12-28T13:09:59;12.00;99.90
9881;DHT22;4979;51.014;6.678;2023-12-28T13:12:25;12.00;99.90
9881;DHT22;4979;51.014;6.678;2023-12-28T13:14:50;11.90;99.90
9881;DHT22;4979;51.014;6.678;2023-12-28T13:17:16;12.00;99.90
9881;DHT22;4979;51.014;6.678;2023-12-28T13:19:44;12.00;99.90
9881;DHT22;4979;51.014;6.678;2023-12-28T13:22:10;11.90;99.90
9881;DHT22;4979;51.014;6.678;2023-12-28T13:24:35;11.90;99.90
9881;DHT22;4979;51.014;6.678;2023-12-28T13:27:01;11.90;99.90
9881;DHT22;4979;51.014;6.678;2023-12-28T13:29:26;11.90;99.90
9881;DHT22;4979;51.014;6.678;2023-12-28T13:31:52;11.90;99.90
9881;DHT22;4979;51.014;6.678;2023-12-28T13:34:20;11.80;99.90
9881;DHT22;4979;51.014;6.678;2023-12-28T13:36:46;11.80;99.90
9881;DHT22;4979;51.014;6.678;2023-12-28T13:39:11;11.80;99.90
9881;DHT22;4979;51.014;6.678;2023-12-28T13:41:40;11.80;99.90
9881;DHT22;4979;51.014;6.678;2023-12-28T13:44:06;11.80;99.90
9881;DHT22;4979;51.014;6.678;2023-12-28T13:46:35;11.70;99.90
9881;DHT22;4979;51.014;6.678;2023-12-28T13:49:01;11.70;99.90
9881;DHT22;4979;51.014;6.678;2023-12-28T13:51:32;11.70;99.90
9881;DHT22;4979;51.014;6.678;2023-12-28T13:53:57;11.60;99.90
9881;DHT22;4979;51.014;6.678;2023-12-28T13:56:23;13.90;99.90
9881;DHT22;4979;51.014;6.678;2023-12-28T13:58:48;11.60;99.90
9881;DHT22;4979;51.014;6.678;2023-12-28T14:01:14;11.60;99.90
9881;DHT22;4979;51.014;6.678;2023-12-28T14:03:40;11.60;99.90
9881;DHT22;4979;51.014;6.678;2023-12-28T14:06:06;11.50;99.90
9881;DHT22;4979;51.014;6.678;2023-12-28T14:08:31;11.50;99.90
9881;DHT22;4979;51.014;6.678;2023-12-28T14:10:57;11.50;99.90
9881;DHT22;4979;51.014;6.678;2023-12-28T14:13:23;11.50;99.90
9881;DHT22;4979;51.014;6.678;2023-12-28T14:15:48;11.50;99.90
9881;DHT22;4979;51.014;6.678;2023-12-28T14:18:14;11.40;99.90
9881;DHT22;4979;51.014;6.678;2023-12-28T14:20:39;11.40;99.90
9881;DHT22;4979;51.014;6.678;2023-12-28T14:23:05;11.40;99.90
9881;DHT22;4979;51.014;6.678;2023-12-28T14:25:31;11.40;99.90
9881;DHT22;4979;51.014;6.678;2023-12-28T14:27:57;11.40;99.90
9881;DHT22;4979;51.014;6.678;2023-12-28T14:30:23;11.30;99.90
9881;DHT22;4979;51.014;6.678;2023-12-28T14:32:49;11.40;99.90
9881;DHT22;4979;51.014;6.678;2023-12-28T14:35:15;11.30;99.90
9881;DHT22;4979;51.014;6.678;2023-12-28T14:37:43;11.30;99.90
9881;DHT22;4979;51.014;6.678;2023-12-28T14:40:09;11.30;99.90
9881;DHT22;4979;51.014;6.678;2023-12-28T14:42:37;11.30;99.90
9881;DHT22;4979;51.014;6.678;2023-12-28T14:45:03;11.20;99.90
9881;DHT22;4979;51.014;6.678;2023-12-28T14:47:28;11.20;99.90
9881;DHT22;4979;51.014;6.678;2023-12-28T14:49:54;11.30;99.90
9881;DHT22;4979;51.014;6.678;2023-12-28T14:52:23;11.20;99.90
9881;DHT22;4979;51.014;6.678;2023-12-28T14:54:49;11.20;99.90
9881;DHT22;4979;51.014;6.678;2023-12-28T14:57:20;11.20;99.90
9881;DHT22;4979;51.014;6.678;2023-12-28T14:59:45;11.20;99.90
9881;DHT22;4979;51.014;6.678;2023-12-28T15:02:11;11.10;99.90
9881;DHT22;4979;51.014;6.678;2023-12-28T15:04:37;11.10;99.90
9881;DHT22;4979;51.014;6.678;2023-12-28T15:07:03;11.10;99.90
9881;DHT22;4979;51.014;6.678;2023-12-28T15:09:29;11.00;99.90
9881;DHT22;4979;51.014;6.678;2023-12-28T15:11:56;11.00;99.90
9881;DHT22;4979;51.014;6.678;2023-12-28T15:14:22;11.00;99.90
9881;DHT22;4979;51.014;6.678;2023-12-28T15:16:48;11.00;99.90
9881;DHT22;4979;51.014;6.678;2023-12-28T15:19:14;11.00;99.90
9881;DHT22;4979;51.014;6.678;2023-12-28T15:21:40;10.90;99.90
9881;DHT22;4979;51.014;6.678;2023-12-28T15:24:06;11.00;99.90
9881;DHT22;4979;51.014;6.678;2023-12-28T15:26:32;10.90;99.90
9881;DHT22;4979;51.014;6.678;2023-12-28T15:28:57;10.90;99.90
9881;DHT22;4979;51.014;6.678;2023-12-28T15:31:23;10.80;99.90
9881;DHT22;4979;51.014;6.678;2023-12-28T15:33:48;10.80;99.90
9881;DHT22;4979;51.014;6.678;2023-12-28T15:36:14;10.80;99.90
9881;DHT22;4979;51.014;6.678;2023-12-28T15:38:40;10.80;99.90
9881;DHT22;4979;51.014;6.678;2023-12-28T15:41:05;10.70;99.90
9881;DHT22;4979;51.014;6.678;2023-12-28T15:43:31;10.70;99.90
9881;DHT22;4979;51.014;6.678;2023-12-28T15:45:56;10.70;99.90
9881;DHT22;4979;51.014;6.678;2023-12-28T15:48:22;10.70;99.90
9881;DHT22;4979;51.014;6.678;2023-12-28T15:50:48;10.70;99.90
9881;DHT22;4979;51.014;6.678;2023-12-28T15:53:13;10.70;99.90
9881;DHT22;4979;51.014;6.678;2023-12-28T15:55:39;10.70;99.90
9881;DHT22;4979;51.014;6.678;2023-12-28T15:58:05;10.70;99.90
9881;DHT22;4979;51.014;6.678;2023-12-28T16:00:30;10.80;99.90
9881;DHT22;4979;51.014;6.678;2023-12-28T16:02:56;10.80;99.90
9881;DHT22;4979;51.014;6.678;2023-12-28T16:05:21;10.80;99.90